Time;durP1;ratioP1;P1;durP2;ratioP2;P2;SDS_P1;SDS_P2;PMS_P1;PMS_P2;Temp;Humidity;BMP_temperature;BMP_pressure;BME280_temperature;BME280_humidity;BME280_pressure;Samples;Min_cycle;Max_cycle;Signal;HPM_P1;HPM_P2
2022/07/26 00:01:12;;;;;;;21.27;6.15;;;;;;;;;;4964739;28;20055;-75
2022/07/26 00:03:40;;;;;;;22.98;7.80;;;;;;;;;;4970167;28;20047;-75
2022/07/26 00:06:07;;;;;;;19.85;6.80;;;;;;;;;;4968750;28;20129;-75
2022/07/26 00:08:34;;;;;;;20.27;6.63;;;;;;;;;;4981527;28;20081;-75
2022/07/26 00:11:01;;;;;;;16.55;6.07;;;;;;;;;;4967176;28;20134;-75
2022/07/26 00:13:34;;;;;;;14.88;7.35;;;;;;;;;;4965799;28;20404;-75
2022/07/26 00:16:01;;;;;;;20.70;7.15;;;;;;;;;;4966136;28;20134;-75
2022/07/26 00:18:28;;;;;;;17.20;7.15;;;;;;;;;;4968366;28;20563;-75
2022/07/26 00:20:56;;;;;;;21.88;8.02;;;;;;;;;;4969060;28;20078;-75
2022/07/26 00:23:23;;;;;;;21.77;6.72;;;;;;;;;;4983676;28;20896;-75
2022/07/26 00:25:51;;;;;;;19.80;6.55;;;;;;;;;;4983878;28;20078;-75
2022/07/26 00:28:18;;;;;;;18.85;7.13;;;;;;;;;;4984341;28;20082;-75
2022/07/26 00:30:45;;;;;;;17.13;6.70;;;;;;;;;;4966953;28;20150;-75
2022/07/26 00:33:12;;;;;;;23.65;6.85;;;;;;;;;;4967731;28;20081;-75
2022/07/26 00:35:41;;;;;;;26.42;6.85;;;;;;;;;;4985212;28;20078;-75
2022/07/26 00:38:08;;;;;;;24.33;7.25;;;;;;;;;;4969308;28;20078;-75
2022/07/26 00:40:35;;;;;;;17.42;7.07;;;;;;;;;;4969748;28;20085;-75
2022/07/26 00:43:03;;;;;;;21.02;6.63;;;;;;;;;;4981387;28;20141;-75
2022/07/26 00:45:30;;;;;;;24.38;6.65;;;;;;;;;;4953555;28;20137;-75
2022/07/26 00:47:57;;;;;;;29.73;6.75;;;;;;;;;;4980909;28;20101;-75
2022/07/26 00:50:24;;;;;;;32.65;7.05;;;;;;;;;;4965994;28;20137;-75
2022/07/26 00:52:53;;;;;;;28.27;7.22;;;;;;;;;;4984085;28;20197;-75
2022/07/26 00:55:20;;;;;;;20.10;7.65;;;;;;;;;;4969351;28;20734;-75
2022/07/26 00:57:48;;;;;;;33.85;7.13;;;;;;;;;;4975736;28;20452;-75
2022/07/26 01:00:17;;;;;;;23.60;6.80;;;;;;;;;;4965280;28;20057;-75
2022/07/26 01:02:45;;;;;;;24.33;6.97;;;;;;;;;;4984068;28;20078;-75
2022/07/26 01:05:12;;;;;;;25.02;7.00;;;;;;;;;;4969429;28;20554;-75
2022/07/26 01:07:39;;;;;;;21.02;7.13;;;;;;;;;;4967218;28;20093;-75
2022/07/26 01:10:11;;;;;;;24.77;6.72;;;;;;;;;;4968732;28;20130;-75
2022/07/26 01:12:39;;;;;;;20.25;5.93;;;;;;;;;;4967990;28;20492;-74
2022/07/26 01:15:06;;;;;;;19.98;6.35;;;;;;;;;;4973829;28;20043;-75
2022/07/26 01:17:34;;;;;;;25.90;7.05;;;;;;;;;;4968113;28;20149;-75
2022/07/26 01:20:05;;;;;;;33.22;6.88;;;;;;;;;;4980355;28;20051;-75
2022/07/26 01:22:32;;;;;;;18.63;7.05;;;;;;;;;;4964804;28;20137;-75
2022/07/26 01:24:59;;;;;;;24.48;6.93;;;;;;;;;;4964748;28;20152;-75
2022/07/26 01:27:26;;;;;;;18.38;8.65;;;;;;;;;;4968107;28;20463;-75
2022/07/26 01:30:00;;;;;;;22.42;6.88;;;;;;;;;;4968111;28;20054;-75
2022/07/26 01:32:27;;;;;;;23.30;7.00;;;;;;;;;;4966015;28;20109;-75
2022/07/26 01:34:54;;;;;;;23.48;8.00;;;;;;;;;;4968299;28;20054;-75
2022/07/26 01:37:22;;;;;;;30.17;7.05;;;;;;;;;;4967432;28;20145;-75
2022/07/26 01:39:49;;;;;;;16.42;7.00;;;;;;;;;;4969957;28;20126;-75
2022/07/26 01:42:16;;;;;;;21.05;7.15;;;;;;;;;;4971575;28;20773;-75
2022/07/26 01:44:43;;;;;;;24.10;6.97;;;;;;;;;;4970237;28;20155;-75
2022/07/26 01:47:11;;;;;;;21.48;7.40;;;;;;;;;;4980284;28;20090;-75
2022/07/26 01:49:38;;;;;;;20.35;6.53;;;;;;;;;;4972109;28;20153;-75
2022/07/26 01:52:05;;;;;;;18.52;7.00;;;;;;;;;;4983915;28;20138;-75
2022/07/26 01:54:32;;;;;;;24.13;8.13;;;;;;;;;;4979556;28;20137;-74
2022/07/26 01:57:00;;;;;;;20.98;7.50;;;;;;;;;;4982664;28;20141;-74
2022/07/26 01:59:27;;;;;;;26.20;7.40;;;;;;;;;;4966742;28;20158;-74
2022/07/26 02:01:54;;;;;;;21.70;6.47;;;;;;;;;;4963851;28;20062;-74
2022/07/26 02:07:07;;;;;;;26.80;7.20;;;;;;;;;;4970851;28;20074;-74
2022/07/26 02:09:39;;;;;;;28.65;7.75;;;;;;;;;;4972533;28;20050;-75
2022/07/26 02:12:06;;;;;;;18.38;7.35;;;;;;;;;;4972383;28;20042;-75
2022/07/26 02:14:34;;;;;;;24.67;7.75;;;;;;;;;;4969027;28;20080;-75
2022/07/26 02:17:01;;;;;;;34.30;8.30;;;;;;;;;;4972316;28;20078;-74
2022/07/26 02:19:29;;;;;;;24.30;7.07;;;;;;;;;;4968480;28;20486;-74
2022/07/26 02:21:57;;;;;;;23.35;7.38;;;;;;;;;;4970025;28;20125;-74
2022/07/26 02:24:27;;;;;;;33.33;8.30;;;;;;;;;;4970938;28;20129;-74
2022/07/26 02:26:55;;;;;;;36.42;7.97;;;;;;;;;;4972448;28;20169;-74
2022/07/26 02:29:22;;;;;;;20.45;7.80;;;;;;;;;;4984702;28;20138;-75
2022/07/26 02:31:49;;;;;;;23.70;7.45;;;;;;;;;;4967239;28;20065;-75
2022/07/26 02:34:17;;;;;;;31.20;7.85;;;;;;;;;;4967154;28;20514;-75
2022/07/26 02:36:45;;;;;;;26.48;6.93;;;;;;;;;;4971898;28;20459;-74
2022/07/26 02:39:13;;;;;;;35.42;7.97;;;;;;;;;;4971854;28;20051;-75
2022/07/26 02:41:40;;;;;;;17.77;5.97;;;;;;;;;;4972034;28;20160;-75
2022/07/26 02:44:07;;;;;;;25.52;7.80;;;;;;;;;;4969759;28;20137;-75
2022/07/26 02:46:36;;;;;;;25.88;6.63;;;;;;;;;;4970972;28;20059;-75
2022/07/26 02:49:04;;;;;;;24.48;6.57;;;;;;;;;;4965196;28;20393;-75
2022/07/26 02:51:31;;;;;;;26.67;7.03;;;;;;;;;;4968657;28;20141;-75
2022/07/26 02:53:59;;;;;;;24.48;6.15;;;;;;;;;;4969079;28;20098;-75
2022/07/26 02:56:26;;;;;;;25.88;6.00;;;;;;;;;;4986842;28;20051;-75
2022/07/26 02:58:53;;;;;;;32.95;6.35;;;;;;;;;;4985810;28;20125;-75
2022/07/26 03:01:21;;;;;;;15.13;5.65;;;;;;;;;;4970555;28;20086;-75
2022/07/26 03:03:48;;;;;;;29.38;6.70;;;;;;;;;;4970722;28;20043;-75
2022/07/26 03:06:17;;;;;;;23.65;6.82;;;;;;;;;;4970779;28;20058;-75
2022/07/26 03:08:45;;;;;;;30.23;6.88;;;;;;;;;;4971665;28;20130;-75
2022/07/26 03:11:12;;;;;;;21.08;6.63;;;;;;;;;;4969263;28;20047;-75
2022/07/26 03:13:39;;;;;;;20.83;6.55;;;;;;;;;;4960657;28;20307;-75
2022/07/26 03:16:07;;;;;;;24.45;6.60;;;;;;;;;;4971690;28;20093;-75
2022/07/26 03:18:35;;;;;;;32.90;7.07;;;;;;;;;;4971340;28;20050;-75
2022/07/26 03:21:02;;;;;;;19.52;6.45;;;;;;;;;;4971183;28;20090;-75
2022/07/26 03:23:32;;;;;;;21.55;7.53;;;;;;;;;;4970293;28;20097;-75
2022/07/26 03:26:00;;;;;;;33.08;7.43;;;;;;;;;;4974858;28;20053;-76
2022/07/26 03:28:33;;;;;;;22.27;6.88;;;;;;;;;;4980664;28;20057;-75
2022/07/26 03:31:01;;;;;;;18.63;6.28;;;;;;;;;;4968999;28;20134;-75
2022/07/26 03:33:29;;;;;;;28.23;7.40;;;;;;;;;;4968271;28;20133;-75
2022/07/26 03:35:56;;;;;;;21.08;7.72;;;;;;;;;;4983431;28;20106;-75
2022/07/26 03:38:24;;;;;;;20.75;5.95;;;;;;;;;;4969506;28;20058;-75
2022/07/26 03:40:51;;;;;;;29.73;8.02;;;;;;;;;;4975044;28;20138;-75
2022/07/26 03:43:18;;;;;;;23.25;7.65;;;;;;;;;;4969186;28;20141;-75
2022/07/26 03:49:12;;;;;;;27.67;7.10;;;;;;;;;;4910245;28;20058;-75
2022/07/26 03:51:43;;;;;;;18.15;7.82;;;;;;;;;;4952446;28;20066;-75
2022/07/26 03:54:11;;;;;;;29.38;8.18;;;;;;;;;;4964325;28;20058;-75
2022/07/26 03:56:39;;;;;;;24.65;7.90;;;;;;;;;;4964907;28;20097;-75
2022/07/26 03:59:07;;;;;;;17.52;6.80;;;;;;;;;;4957731;28;20133;-75
2022/07/26 04:01:35;;;;;;;21.10;7.47;;;;;;;;;;4962799;28;20142;-75
2022/07/26 04:04:03;;;;;;;24.45;7.65;;;;;;;;;;4963079;28;20499;-75
2022/07/26 04:06:31;;;;;;;23.88;7.30;;;;;;;;;;4962180;28;21707;-75
2022/07/26 04:08:58;;;;;;;20.15;6.93;;;;;;;;;;4951868;28;20051;-75
2022/07/26 04:11:25;;;;;;;26.23;8.00;;;;;;;;;;4966082;28;20522;-75
2022/07/26 04:13:55;;;;;;;20.52;7.15;;;;;;;;;;4965935;28;20043;-75
2022/07/26 04:16:22;;;;;;;21.00;7.38;;;;;;;;;;4963429;28;20078;-75
2022/07/26 04:18:50;;;;;;;21.05;6.97;;;;;;;;;;4956895;28;20057;-75
2022/07/26 04:21:17;;;;;;;17.17;6.95;;;;;;;;;;4963586;28;20153;-74
2022/07/26 04:23:44;;;;;;;19.63;6.82;;;;;;;;;;4967030;28;20095;-74
2022/07/26 04:26:17;;;;;;;19.02;6.15;;;;;;;;;;4960718;28;20058;-74
2022/07/26 04:28:45;;;;;;;16.02;5.82;;;;;;;;;;4962629;28;20575;-74
2022/07/26 04:31:12;;;;;;;17.73;6.38;;;;;;;;;;4962719;28;20061;-75
2022/07/26 04:33:39;;;;;;;16.42;6.30;;;;;;;;;;4963275;28;20051;-75
2022/07/26 04:36:07;;;;;;;15.60;6.13;;;;;;;;;;4960078;28;20133;-75
2022/07/26 04:38:34;;;;;;;26.80;7.13;;;;;;;;;;4958912;28;20432;-75
2022/07/26 04:41:01;;;;;;;23.35;6.43;;;;;;;;;;4962835;28;20043;-75
2022/07/26 04:43:29;;;;;;;22.70;5.88;;;;;;;;;;4953753;28;20694;-75
2022/07/26 04:45:56;;;;;;;24.17;6.57;;;;;;;;;;4962527;28;20137;-75
2022/07/26 04:48:24;;;;;;;20.70;5.95;;;;;;;;;;4957223;28;20054;-75
2022/07/26 04:50:52;;;;;;;26.15;5.32;;;;;;;;;;4957246;28;20145;-75
2022/07/26 04:53:19;;;;;;;15.20;6.90;;;;;;;;;;4959830;28;20706;-74
2022/07/26 04:55:47;;;;;;;14.20;5.45;;;;;;;;;;4965255;28;20706;-74
2022/07/26 04:58:14;;;;;;;15.27;5.50;;;;;;;;;;4967468;28;20129;-74
2022/07/26 05:00:45;;;;;;;18.15;5.00;;;;;;;;;;4957338;28;20051;-76
2022/07/26 05:03:33;;;;;;;25.35;5.60;;;;;;;;;;4952554;28;20150;-74
2022/07/26 05:06:01;;;;;;;23.33;6.00;;;;;;;;;;4962511;28;20052;-76
2022/07/26 05:08:28;;;;;;;13.48;5.20;;;;;;;;;;4953292;28;20435;-74
2022/07/26 05:10:55;;;;;;;16.50;5.68;;;;;;;;;;4973618;28;20133;-74
2022/07/26 05:13:23;;;;;;;21.60;6.28;;;;;;;;;;4960579;28;20057;-74
2022/07/26 05:15:57;;;;;;;16.85;5.43;;;;;;;;;;4967575;28;20054;-74
2022/07/26 05:18:25;;;;;;;13.85;5.47;;;;;;;;;;4964350;28;20054;-74
2022/07/26 05:20:52;;;;;;;19.85;5.28;;;;;;;;;;4968671;28;20066;-74
2022/07/26 05:23:20;;;;;;;17.58;5.25;;;;;;;;;;4968541;28;20082;-74
2022/07/26 05:25:47;;;;;;;15.25;5.90;;;;;;;;;;4979704;28;20141;-74
2022/07/26 05:28:14;;;;;;;12.27;5.60;;;;;;;;;;4973521;28;20058;-75
2022/07/26 05:30:42;;;;;;;17.38;5.10;;;;;;;;;;4966294;28;20161;-74
2022/07/26 05:33:09;;;;;;;11.85;4.70;;;;;;;;;;4963566;28;20043;-75
2022/07/26 05:35:42;;;;;;;20.23;5.32;;;;;;;;;;4963195;28;20077;-74
2022/07/26 05:38:09;;;;;;;14.68;5.30;;;;;;;;;;4962806;28;20143;-75
2022/07/26 05:40:37;;;;;;;13.77;4.88;;;;;;;;;;4963950;28;20536;-75
2022/07/26 05:43:04;;;;;;;10.32;4.70;;;;;;;;;;4958652;28;20484;-74
2022/07/26 05:45:31;;;;;;;16.00;4.18;;;;;;;;;;4967202;28;20134;-74
2022/07/26 05:47:59;;;;;;;16.65;5.45;;;;;;;;;;4966884;28;20054;-74
2022/07/26 05:50:26;;;;;;;16.02;4.95;;;;;;;;;;4966769;28;20515;-74
2022/07/26 05:52:53;;;;;;;17.80;4.93;;;;;;;;;;4966439;28;20057;-74
2022/07/26 05:55:21;;;;;;;29.77;6.65;;;;;;;;;;4965928;28;20131;-73
2022/07/26 05:57:48;;;;;;;20.80;6.15;;;;;;;;;;4973556;28;20173;-74
2022/07/26 06:00:16;;;;;;;32.10;5.07;;;;;;;;;;4967850;28;20050;-74
2022/07/26 06:02:43;;;;;;;23.88;5.20;;;;;;;;;;4966691;28;20097;-74
2022/07/26 06:05:11;;;;;;;20.65;6.43;;;;;;;;;;4965589;28;20486;-73
2022/07/26 06:07:38;;;;;;;14.38;5.30;;;;;;;;;;4965519;28;20063;-73
2022/07/26 06:10:06;;;;;;;15.23;5.82;;;;;;;;;;4972391;28;20154;-74
2022/07/26 06:12:33;;;;;;;20.85;5.45;;;;;;;;;;4968107;28;20051;-74
2022/07/26 06:15:00;;;;;;;15.93;5.22;;;;;;;;;;4968842;28;20134;-74
2022/07/26 06:17:28;;;;;;;15.40;4.50;;;;;;;;;;4967439;28;20125;-74
2022/07/26 06:19:57;;;;;;;16.17;5.65;;;;;;;;;;4967104;28;20047;-73
2022/07/26 06:22:24;;;;;;;14.55;4.65;;;;;;;;;;4964599;28;20146;-74
2022/07/26 06:24:51;;;;;;;8.65;4.28;;;;;;;;;;4967826;28;20134;-74
2022/07/26 06:27:19;;;;;;;10.43;4.53;;;;;;;;;;4970990;28;20146;-74
2022/07/26 06:29:47;;;;;;;15.25;4.88;;;;;;;;;;4966846;28;20053;-73
2022/07/26 06:32:15;;;;;;;13.45;5.55;;;;;;;;;;4965349;28;20058;-74
2022/07/26 06:34:42;;;;;;;13.07;4.72;;;;;;;;;;4965161;28;20047;-74
2022/07/26 06:37:09;;;;;;;23.60;4.72;;;;;;;;;;4968363;28;20146;-74
2022/07/26 06:39:37;;;;;;;23.52;4.47;;;;;;;;;;4954139;28;20090;-74
2022/07/26 06:42:04;;;;;;;15.45;4.25;;;;;;;;;;4963052;28;20046;-74
2022/07/26 06:44:31;;;;;;;15.80;4.50;;;;;;;;;;4967349;28;20051;-74
2022/07/26 06:46:58;;;;;;;15.13;4.78;;;;;;;;;;4967596;28;20470;-74
2022/07/26 06:49:26;;;;;;;13.20;4.03;;;;;;;;;;4965206;28;20158;-74
2022/07/26 06:51:56;;;;;;;10.98;4.05;;;;;;;;;;4967877;28;20729;-74
2022/07/26 06:54:23;;;;;;;14.23;3.80;;;;;;;;;;4968815;28;20471;-74
2022/07/26 06:56:51;;;;;;;19.77;4.75;;;;;;;;;;4970832;28;20053;-74
2022/07/26 06:59:18;;;;;;;12.93;3.90;;;;;;;;;;4980415;28;20828;-74
2022/07/26 07:01:45;;;;;;;10.55;3.67;;;;;;;;;;4965751;28;20122;-74
2022/07/26 07:04:26;;;;;;;17.50;3.63;;;;;;;;;;4966702;28;20432;-74
2022/07/26 07:06:53;;;;;;;10.85;4.35;;;;;;;;;;4962555;28;20051;-74
2022/07/26 07:09:23;;;;;;;10.45;2.95;;;;;;;;;;4960852;28;20070;-74
2022/07/26 07:11:51;;;;;;;9.63;3.03;;;;;;;;;;4967421;28;20137;-74
2022/07/26 07:14:26;;;;;;;;;;;;;;;;;;4968069;28;20055;-73
2022/07/26 07:16:54;;;;;;;12.82;3.00;;;;;;;;;;4966813;28;20000;-74
2022/07/26 07:19:22;;;;;;;9.45;2.78;;;;;;;;;;4964566;28;20055;-74
2022/07/26 07:21:50;;;;;;;12.23;3.17;;;;;;;;;;4953101;28;20594;-73
2022/07/26 07:24:17;;;;;;;9.23;3.20;;;;;;;;;;4965087;28;20909;-74
2022/07/26 07:26:45;;;;;;;12.15;2.95;;;;;;;;;;4963467;28;20101;-74
2022/07/26 07:29:14;;;;;;;7.00;2.47;;;;;;;;;;4957818;28;20146;-74
2022/07/26 07:31:41;;;;;;;9.45;2.58;;;;;;;;;;4948218;28;20165;-73
2022/07/26 07:34:17;;;;;;;7.50;2.57;;;;;;;;;;4964544;28;20055;-74
2022/07/26 07:36:45;;;;;;;5.32;2.40;;;;;;;;;;4965160;28;21331;-74
2022/07/26 07:39:13;;;;;;;7.13;2.10;;;;;;;;;;4959614;28;20050;-74
2022/07/26 07:41:44;;;;;;;6.00;2.38;;;;;;;;;;4963766;28;20181;-74
2022/07/26 07:44:12;;;;;;;6.32;2.20;;;;;;;;;;4965598;28;20172;-74
2022/07/26 07:46:39;;;;;;;7.13;2.10;;;;;;;;;;4962789;28;20137;-74
2022/07/26 07:49:07;;;;;;;11.80;2.47;;;;;;;;;;4964757;28;20765;-74
2022/07/26 07:51:35;;;;;;;5.03;2.28;;;;;;;;;;4965039;28;20594;-73
2022/07/26 07:54:02;;;;;;;6.47;2.00;;;;;;;;;;4962287;28;20054;-74
2022/07/26 07:56:32;;;;;;;5.10;1.75;;;;;;;;;;4962370;28;20821;-74
2022/07/26 07:58:59;;;;;;;7.22;2.30;;;;;;;;;;4964245;28;20086;-75
2022/07/26 08:01:27;;;;;;;5.15;1.42;;;;;;;;;;4964668;28;20504;-74
2022/07/26 08:04:07;;;;;;;4.15;1.70;;;;;;;;;;4960477;28;20077;-74
2022/07/26 08:06:34;;;;;;;7.10;1.85;;;;;;;;;;4978749;28;20082;-74
2022/07/26 08:09:02;;;;;;;3.53;1.75;;;;;;;;;;4957646;28;20062;-74
2022/07/26 08:11:31;;;;;;;6.95;2.10;;;;;;;;;;4960879;28;20058;-74
2022/07/26 08:14:00;;;;;;;7.30;1.88;;;;;;;;;;4963371;28;20055;-74
2022/07/26 08:16:27;;;;;;;4.32;1.77;;;;;;;;;;4962452;28;20154;-73
2022/07/26 08:18:55;;;;;;;7.63;1.88;;;;;;;;;;4957179;28;20131;-74
2022/07/26 08:21:25;;;;;;;5.00;2.00;;;;;;;;;;4963375;28;20097;-74
2022/07/26 08:23:55;;;;;;;4.30;1.30;;;;;;;;;;4963707;28;20143;-74
2022/07/26 08:26:22;;;;;;;2.28;1.30;;;;;;;;;;4965611;28;20783;-74
2022/07/26 08:28:49;;;;;;;3.35;1.60;;;;;;;;;;4956809;28;20138;-74
2022/07/26 08:31:36;;;;;;;4.03;2.05;;;;;;;;;;4976588;28;20078;-74
2022/07/26 08:34:03;;;;;;;6.53;1.90;;;;;;;;;;4964590;28;20514;-73
2022/07/26 08:36:31;;;;;;;3.83;1.27;;;;;;;;;;4965142;28;20511;-74
2022/07/26 08:38:59;;;;;;;5.90;1.70;;;;;;;;;;4957235;28;20090;-73
2022/07/26 08:41:27;;;;;;;11.27;4.95;;;;;;;;;;4960744;28;20125;-74
2022/07/26 08:43:54;;;;;;;9.85;5.05;;;;;;;;;;4965303;28;20855;-74
2022/07/26 08:46:23;;;;;;;5.05;1.75;;;;;;;;;;4961984;28;20063;-74
2022/07/26 08:48:53;;;;;;;3.35;1.45;;;;;;;;;;4963348;28;20097;-73
2022/07/26 08:51:22;;;;;;;4.13;1.83;;;;;;;;;;4962203;28;20050;-75
2022/07/26 08:53:51;;;;;;;12.50;2.22;;;;;;;;;;4960889;28;20062;-74
2022/07/26 08:56:18;;;;;;;5.30;1.48;;;;;;;;;;4960912;28;20138;-74
2022/07/26 08:58:46;;;;;;;4.75;1.67;;;;;;;;;;4962484;28;20051;-74
2022/07/26 09:01:13;;;;;;;11.40;1.38;;;;;;;;;;4977714;28;20154;-74
2022/07/26 09:03:43;;;;;;;8.95;1.08;;;;;;;;;;4959536;28;20499;-73
2022/07/26 09:06:16;;;;;;;2.97;0.55;;;;;;;;;;4961483;28;20077;-74
2022/07/26 09:08:44;;;;;;;3.75;0.68;;;;;;;;;;4959983;28;20054;-74
2022/07/26 09:11:23;;;;;;;3.40;0.60;;;;;;;;;;4953984;28;20074;-74
2022/07/26 09:13:58;;;;;;;1.45;0.60;;;;;;;;;;4971464;28;20074;-74
2022/07/26 09:16:26;;;;;;;2.60;0.50;;;;;;;;;;4964040;28;20595;-73
2022/07/26 09:18:53;;;;;;;5.60;0.90;;;;;;;;;;4959552;28;20065;-73
2022/07/26 09:21:37;;;;;;;4.60;0.80;;;;;;;;;;4964246;28;20082;-72
2022/07/26 09:24:05;;;;;;;6.35;0.90;;;;;;;;;;4971215;28;20050;-72
2022/07/26 09:26:32;;;;;;;6.70;0.98;;;;;;;;;;4965755;28;20133;-72
2022/07/26 09:29:07;;;;;;;4.78;0.90;;;;;;;;;;4962821;28;20118;-72
2022/07/26 09:31:36;;;;;;;5.60;1.00;;;;;;;;;;4960385;28;20531;-72
2022/07/26 09:34:04;;;;;;;5.57;0.85;;;;;;;;;;4963203;28;20125;-72
2022/07/26 09:36:32;;;;;;;2.92;0.90;;;;;;;;;;4965042;28;20055;-72
2022/07/26 09:39:01;;;;;;;3.67;0.93;;;;;;;;;;4958996;28;20061;-73
2022/07/26 09:41:37;;;;;;;6.70;0.88;;;;;;;;;;4963594;28;20047;-73
2022/07/26 09:44:05;;;;;;;3.17;0.63;;;;;;;;;;4961022;28;20057;-73
2022/07/26 09:46:34;;;;;;;3.35;0.60;;;;;;;;;;4962256;28;20074;-73
2022/07/26 09:49:22;;;;;;;4.65;0.70;;;;;;;;;;4959429;28;20055;-72
2022/07/26 09:51:50;;;;;;;3.53;0.80;;;;;;;;;;4956682;28;20065;-73
2022/07/26 09:54:19;;;;;;;3.08;0.90;;;;;;;;;;4962418;28;20145;-73
2022/07/26 09:56:50;;;;;;;5.43;0.70;;;;;;;;;;4964347;28;20047;-73
2022/07/26 09:59:20;;;;;;;6.13;1.02;;;;;;;;;;4955891;28;20496;-72
2022/07/26 10:01:48;;;;;;;2.85;1.23;;;;;;;;;;4959222;28;20050;-73
2022/07/26 10:04:16;;;;;;;3.25;0.80;;;;;;;;;;4967364;28;20117;-73
2022/07/26 10:06:44;;;;;;;2.20;1.17;;;;;;;;;;4959913;28;20086;-73
2022/07/26 10:09:12;;;;;;;6.00;1.08;;;;;;;;;;4965184;28;20101;-73
2022/07/26 10:11:42;;;;;;;2.45;0.75;;;;;;;;;;4960194;28;20177;-74
2022/07/26 10:14:29;;;;;;;4.00;0.75;;;;;;;;;;4967694;28;20499;-73
2022/07/26 10:16:56;;;;;;;12.77;1.35;;;;;;;;;;4959618;28;20137;-73
2022/07/26 10:19:40;;;;;;;9.85;1.25;;;;;;;;;;4961916;28;20492;-73
2022/07/26 10:22:23;;;;;;;2.20;0.88;;;;;;;;;;4965027;28;20662;-74
2022/07/26 10:24:51;;;;;;;2.15;0.70;;;;;;;;;;4967631;28;20145;-74
2022/07/26 10:27:37;;;;;;;2.20;0.75;;;;;;;;;;4965057;28;20062;-73
2022/07/26 10:30:22;;;;;;;2.08;0.60;;;;;;;;;;4965100;28;20086;-74
2022/07/26 10:33:04;;;;;;;1.80;0.80;;;;;;;;;;4966577;28;20161;-74
2022/07/26 10:38:09;;;;;;;5.10;0.50;;;;;;;;;;4966619;28;20074;-74
2022/07/26 10:40:37;;;;;;;8.48;1.67;;;;;;;;;;4963762;28;20134;-73
2022/07/26 10:43:07;;;;;;;4.03;0.52;;;;;;;;;;4966175;28;20054;-73
2022/07/26 10:46:13;;;;;;;3.95;0.57;;;;;;;;;;4959671;28;20046;-73
2022/07/26 10:49:02;;;;;;;0.90;0.50;;;;;;;;;;4965085;28;20043;-74
2022/07/26 10:51:34;;;;;;;4.50;1.10;;;;;;;;;;4965237;28;20063;-73
2022/07/26 10:54:02;;;;;;;2.35;0.30;;;;;;;;;;4978373;28;20129;-73
2022/07/26 10:56:30;;;;;;;2.53;0.75;;;;;;;;;;4964058;28;20082;-73
2022/07/26 10:59:00;;;;;;;2.70;0.38;;;;;;;;;;4965569;28;20051;-73
2022/07/26 11:01:34;;;;;;;6.88;0.50;;;;;;;;;;4965060;28;20767;-74
2022/07/26 11:04:02;;;;;;;8.95;0.50;;;;;;;;;;4962266;28;20061;-71
2022/07/26 11:06:29;;;;;;;1.73;0.40;;;;;;;;;;4964463;28;20561;-73
2022/07/26 11:08:56;;;;;;;2.53;0.47;;;;;;;;;;4960735;28;21054;-73
2022/07/26 11:11:31;;;;;;;3.15;1.05;;;;;;;;;;4966359;28;20050;-73
2022/07/26 11:14:08;;;;;;;4.17;0.57;;;;;;;;;;4966625;28;20142;-72
2022/07/26 11:16:44;;;;;;;6.63;0.57;;;;;;;;;;4966643;28;20282;-72
2022/07/26 11:19:13;;;;;;;2.47;0.68;;;;;;;;;;4962994;28;20468;-72
2022/07/26 11:21:40;;;;;;;3.45;0.55;;;;;;;;;;4964248;28;20176;-72
2022/07/26 11:24:08;;;;;;;4.03;0.65;;;;;;;;;;4965933;28;20129;-72
2022/07/26 11:26:45;;;;;;;5.05;0.73;;;;;;;;;;4964610;28;20154;-72
2022/07/26 11:29:13;;;;;;;3.05;0.50;;;;;;;;;;4979613;28;20061;-72
2022/07/26 11:31:47;;;;;;;4.45;0.40;;;;;;;;;;4963351;28;20061;-72
2022/07/26 11:34:27;;;;;;;8.73;0.50;;;;;;;;;;4962177;28;20047;-72
2022/07/26 11:36:55;;;;;;;1.65;0.50;;;;;;;;;;4960392;28;20063;-72
2022/07/26 11:39:30;;;;;;;4.72;0.40;;;;;;;;;;4961641;28;20506;-72
2022/07/26 11:42:08;;;;;;;5.88;0.70;;;;;;;;;;4962537;28;20129;-72
2022/07/26 11:44:36;;;;;;;3.90;1.05;;;;;;;;;;4963797;28;20150;-74
2022/07/26 11:47:12;;;;;;;2.00;0.60;;;;;;;;;;4966313;28;20452;-73
2022/07/26 11:49:39;;;;;;;2.80;0.63;;;;;;;;;;4965162;28;20158;-72
2022/07/26 11:52:30;;;;;;;9.80;0.98;;;;;;;;;;4961821;28;20517;-72
2022/07/26 11:54:58;;;;;;;4.50;0.70;;;;;;;;;;4960499;28;20539;-73
2022/07/26 11:57:29;;;;;;;5.32;1.02;;;;;;;;;;4963875;28;20042;-72
2022/07/26 11:59:58;;;;;;;7.78;0.57;;;;;;;;;;4963686;28;20352;-72
2022/07/26 12:02:26;;;;;;;6.75;0.70;;;;;;;;;;4961805;28;20054;-73
2022/07/26 12:05:12;;;;;;;5.28;0.70;;;;;;;;;;4962016;28;20094;-72
2022/07/26 12:07:51;;;;;;;7.13;0.82;;;;;;;;;;4964496;28;20770;-72
2022/07/26 12:10:19;;;;;;;8.00;0.80;;;;;;;;;;4958240;28;20142;-72
2022/07/26 12:12:46;;;;;;;2.85;0.60;;;;;;;;;;4965532;28;20081;-72
2022/07/26 12:15:14;;;;;;;4.45;1.50;;;;;;;;;;4964693;28;20051;-72
2022/07/26 12:17:57;;;;;;;3.35;0.63;;;;;;;;;;4967194;28;20093;-72
2022/07/26 12:20:26;;;;;;;7.20;0.80;;;;;;;;;;4958635;28;20160;-72
2022/07/26 12:23:04;;;;;;;10.43;0.80;;;;;;;;;;4963405;28;20053;-71
2022/07/26 12:25:34;;;;;;;4.20;1.30;;;;;;;;;;4963702;28;20043;-75
2022/07/26 12:28:02;;;;;;;5.78;0.90;;;;;;;;;;4965253;28;20141;-74
2022/07/26 12:30:34;;;;;;;14.77;1.98;;;;;;;;;;4963260;28;20579;-74
2022/07/26 12:33:02;;;;;;;7.53;1.10;;;;;;;;;;4965102;28;20054;-74
2022/07/26 12:35:32;;;;;;;4.30;1.00;;;;;;;;;;4964689;28;20082;-74
2022/07/26 12:37:59;;;;;;;11.55;0.75;;;;;;;;;;4964429;28;20058;-74
2022/07/26 12:40:28;;;;;;;8.20;0.77;;;;;;;;;;4961570;28;20201;-73
2022/07/26 12:43:01;;;;;;;6.75;1.02;;;;;;;;;;4963729;28;20510;-74
2022/07/26 12:45:30;;;;;;;4.65;0.90;;;;;;;;;;4964477;28;20158;-73
2022/07/26 12:47:59;;;;;;;1.58;0.50;;;;;;;;;;4964444;28;20059;-74
2022/07/26 12:50:27;;;;;;;8.35;0.77;;;;;;;;;;4964191;28;20138;-74
2022/07/26 12:53:05;;;;;;;6.68;1.00;;;;;;;;;;4963887;28;20168;-74
2022/07/26 12:55:38;;;;;;;4.05;0.70;;;;;;;;;;4964499;28;20051;-75
2022/07/26 12:58:06;;;;;;;5.07;0.70;;;;;;;;;;4964402;28;20138;-74
2022/07/26 13:00:33;;;;;;;4.85;0.52;;;;;;;;;;4964331;28;20051;-74
2022/07/26 13:03:01;;;;;;;10.68;1.08;;;;;;;;;;4963588;28;20737;-74
2022/07/26 13:05:30;;;;;;;3.40;0.60;;;;;;;;;;4965439;28;20094;-74
2022/07/26 13:07:57;;;;;;;3.90;0.60;;;;;;;;;;4964376;28;20059;-74
2022/07/26 13:10:24;;;;;;;4.88;0.85;;;;;;;;;;4955752;28;20137;-74
2022/07/26 13:13:02;;;;;;;3.65;0.60;;;;;;;;;;4966459;28;20058;-74
2022/07/26 13:15:29;;;;;;;5.53;0.88;;;;;;;;;;4964455;28;20153;-74
2022/07/26 13:18:02;;;;;;;2.38;0.60;;;;;;;;;;4961406;28;20133;-74
2022/07/26 13:20:30;;;;;;;4.95;0.60;;;;;;;;;;4958113;28;20718;-74
2022/07/26 13:22:57;;;;;;;2.40;0.68;;;;;;;;;;4968221;28;20137;-76
2022/07/26 13:25:24;;;;;;;1.60;0.55;;;;;;;;;;4963868;28;20545;-74
2022/07/26 13:28:00;;;;;;;1.40;0.60;;;;;;;;;;4958409;28;20082;-74
2022/07/26 13:30:27;;;;;;;4.95;0.70;;;;;;;;;;4959842;28;20082;-74
2022/07/26 13:32:54;;;;;;;2.15;0.50;;;;;;;;;;4961987;28;20162;-74
2022/07/26 13:35:21;;;;;;;3.75;0.80;;;;;;;;;;4967082;28;20141;-75
2022/07/26 13:37:49;;;;;;;7.60;0.77;;;;;;;;;;4967141;28;20161;-74
2022/07/26 13:40:16;;;;;;;1.63;0.50;;;;;;;;;;4953915;28;20147;-76
2022/07/26 13:42:43;;;;;;;3.30;0.70;;;;;;;;;;4956741;28;20121;-76
2022/07/26 13:45:11;;;;;;;4.50;0.65;;;;;;;;;;4966542;28;20086;-76
2022/07/26 13:47:38;;;;;;;4.05;0.70;;;;;;;;;;4967174;28;20129;-75
2022/07/26 13:50:06;;;;;;;3.92;0.60;;;;;;;;;;4967506;28;20080;-75
2022/07/26 13:52:34;;;;;;;9.15;0.88;;;;;;;;;;4965884;28;20054;-75
2022/07/26 13:55:01;;;;;;;6.63;1.02;;;;;;;;;;4968856;28;20566;-76
2022/07/26 13:57:28;;;;;;;2.25;0.60;;;;;;;;;;4968875;28;20050;-76
2022/07/26 14:00:16;;;;;;;3.70;1.10;;;;;;;;;;4956990;28;20058;-76
2022/07/26 14:02:43;;;;;;;1.77;0.63;;;;;;;;;;4969273;28;20050;-75
2022/07/26 14:05:10;;;;;;;11.25;1.13;;;;;;;;;;4965354;28;20069;-76
2022/07/26 14:07:39;;;;;;;3.58;0.80;;;;;;;;;;4969106;28;20130;-76
2022/07/26 14:10:06;;;;;;;4.55;0.88;;;;;;;;;;4969047;28;20122;-76
2022/07/26 14:12:34;;;;;;;3.95;0.80;;;;;;;;;;4972817;28;20061;-76
2022/07/26 14:15:01;;;;;;;3.92;1.30;;;;;;;;;;4972109;28;20134;-75
2022/07/26 14:17:33;;;;;;;6.25;1.23;;;;;;;;;;4971707;28;20058;-76
2022/07/26 14:20:01;;;;;;;5.18;0.90;;;;;;;;;;4968343;28;20047;-76
2022/07/26 14:22:29;;;;;;;7.47;1.25;;;;;;;;;;4972099;28;20672;-75
2022/07/26 14:24:56;;;;;;;4.75;0.95;;;;;;;;;;4970592;28;20499;-76
2022/07/26 14:27:24;;;;;;;8.00;1.60;;;;;;;;;;4971373;28;20129;-77
2022/07/26 14:29:51;;;;;;;8.05;1.23;;;;;;;;;;4969202;28;20051;-76
2022/07/26 14:32:18;;;;;;;8.48;1.27;;;;;;;;;;4967106;28;20619;-76
2022/07/26 14:34:48;;;;;;;7.18;1.10;;;;;;;;;;4960334;28;20755;-76
2022/07/26 14:37:15;;;;;;;10.45;1.50;;;;;;;;;;4971993;28;20082;-75
2022/07/26 14:40:05;;;;;;;8.13;1.02;;;;;;;;;;4970160;28;20057;-76
2022/07/26 14:42:33;;;;;;;7.40;1.38;;;;;;;;;;4971023;28;20046;-76
2022/07/26 14:45:00;;;;;;;4.20;0.93;;;;;;;;;;4972146;28;20138;-77
2022/07/26 14:47:28;;;;;;;6.18;1.05;;;;;;;;;;4971391;28;20782;-75
2022/07/26 14:49:55;;;;;;;10.90;1.63;;;;;;;;;;4968729;28;20137;-76
2022/07/26 14:52:22;;;;;;;9.80;0.95;;;;;;;;;;4968419;28;20078;-76
2022/07/26 14:54:50;;;;;;;7.05;1.58;;;;;;;;;;4971517;28;20125;-76
2022/07/26 14:57:18;;;;;;;9.45;1.23;;;;;;;;;;4972229;28;20070;-76